sensor_id;sensor_type;location;lat;lon;timestamp;P1;durP1;ratioP1;P2;durP2;ratioP2
4555;SDS011;2290;48.674;9.018;2023-04-06T00:01:42;8.53;;;4.40;;
4555;SDS011;2290;48.674;9.018;2023-04-06T00:04:07;8.13;;;4.73;;
4555;SDS011;2290;48.674;9.018;2023-04-06T00:06:34;7.47;;;4.70;;
4555;SDS011;2290;48.674;9.018;2023-04-06T00:09:00;7.50;;;4.63;;
4555;SDS011;2290;48.674;9.018;2023-04-06T00:11:26;6.83;;;4.63;;
4555;SDS011;2290;48.674;9.018;2023-04-06T00:13:51;6.20;;;4.00;;
4555;SDS011;2290;48.674;9.018;2023-04-06T00:16:17;9.00;;;4.40;;
4555;SDS011;2290;48.674;9.018;2023-04-06T00:18:43;7.63;;;4.23;;
4555;SDS011;2290;48.674;9.018;2023-04-06T00:21:11;7.37;;;4.40;;
4555;SDS011;2290;48.674;9.018;2023-04-06T00:23:39;10.03;;;4.20;;
4555;SDS011;2290;48.674;9.018;2023-04-06T00:26:05;6.50;;;4.80;;
4555;SDS011;2290;48.674;9.018;2023-04-06T00:28:31;7.33;;;4.83;;
4555;SDS011;2290;48.674;9.018;2023-04-06T00:30:56;9.43;;;4.40;;
4555;SDS011;2290;48.674;9.018;2023-04-06T00:33:22;7.93;;;4.50;;
4555;SDS011;2290;48.674;9.018;2023-04-06T00:35:48;9.27;;;5.20;;
4555;SDS011;2290;48.674;9.018;2023-04-06T00:38:14;7.10;;;4.40;;
4555;SDS011;2290;48.674;9.018;2023-04-06T00:40:41;7.80;;;4.37;;
4555;SDS011;2290;48.674;9.018;2023-04-06T00:43:10;8.47;;;4.77;;
4555;SDS011;2290;48.674;9.018;2023-04-06T00:45:40;9.10;;;5.33;;
4555;SDS011;2290;48.674;9.018;2023-04-06T00:48:07;9.30;;;5.07;;
4555;SDS011;2290;48.674;9.018;2023-04-06T00:50:33;11.30;;;4.67;;
4555;SDS011;2290;48.674;9.018;2023-04-06T00:52:59;6.73;;;4.63;;
4555;SDS011;2290;48.674;9.018;2023-04-06T00:55:26;7.90;;;5.20;;
4555;SDS011;2290;48.674;9.018;2023-04-06T00:57:52;10.60;;;4.90;;
4555;SDS011;2290;48.674;9.018;2023-04-06T01:00:18;9.60;;;4.63;;
4555;SDS011;2290;48.674;9.018;2023-04-06T01:02:43;10.97;;;5.47;;
4555;SDS011;2290;48.674;9.018;2023-04-06T01:05:11;10.37;;;4.90;;
4555;SDS011;2290;48.674;9.018;2023-04-06T01:07:36;8.40;;;4.83;;
4555;SDS011;2290;48.674;9.018;2023-04-06T01:10:02;9.20;;;5.00;;
4555;SDS011;2290;48.674;9.018;2023-04-06T01:12:28;10.10;;;4.90;;
4555;SDS011;2290;48.674;9.018;2023-04-06T01:14:54;9.07;;;4.63;;
4555;SDS011;2290;48.674;9.018;2023-04-06T01:17:20;8.13;;;4.60;;
4555;SDS011;2290;48.674;9.018;2023-04-06T01:19:47;6.87;;;4.50;;
4555;SDS011;2290;48.674;9.018;2023-04-06T01:22:15;11.43;;;5.90;;
4555;SDS011;2290;48.674;9.018;2023-04-06T01:24:41;7.80;;;4.60;;
4555;SDS011;2290;48.674;9.018;2023-04-06T01:27:07;9.50;;;5.80;;
4555;SDS011;2290;48.674;9.018;2023-04-06T01:29:32;8.73;;;4.90;;
4555;SDS011;2290;48.674;9.018;2023-04-06T01:31:58;9.40;;;5.13;;
4555;SDS011;2290;48.674;9.018;2023-04-06T01:34:26;9.20;;;5.00;;
4555;SDS011;2290;48.674;9.018;2023-04-06T01:36:52;9.77;;;4.70;;
4555;SDS011;2290;48.674;9.018;2023-04-06T01:39:18;7.30;;;4.93;;
4555;SDS011;2290;48.674;9.018;2023-04-06T01:41:44;7.00;;;5.03;;
4555;SDS011;2290;48.674;9.018;2023-04-06T01:44:11;7.17;;;4.70;;
4555;SDS011;2290;48.674;9.018;2023-04-06T01:46:37;8.10;;;5.20;;
4555;SDS011;2290;48.674;9.018;2023-04-06T01:49:03;8.90;;;4.70;;
4555;SDS011;2290;48.674;9.018;2023-04-06T01:51:28;7.40;;;4.73;;
4555;SDS011;2290;48.674;9.018;2023-04-06T01:53:55;9.13;;;5.17;;
4555;SDS011;2290;48.674;9.018;2023-04-06T01:56:20;11.50;;;5.30;;
4555;SDS011;2290;48.674;9.018;2023-04-06T01:58:46;7.30;;;5.00;;
4555;SDS011;2290;48.674;9.018;2023-04-06T02:01:11;9.20;;;4.50;;
4555;SDS011;2290;48.674;9.018;2023-04-06T02:03:37;6.67;;;4.00;;
4555;SDS011;2290;48.674;9.018;2023-04-06T02:06:03;8.10;;;4.93;;
4555;SDS011;2290;48.674;9.018;2023-04-06T02:08:30;10.30;;;4.53;;
4555;SDS011;2290;48.674;9.018;2023-04-06T02:10:56;9.27;;;5.03;;
4555;SDS011;2290;48.674;9.018;2023-04-06T02:13:22;9.50;;;5.00;;
4555;SDS011;2290;48.674;9.018;2023-04-06T02:15:49;9.30;;;5.10;;
4555;SDS011;2290;48.674;9.018;2023-04-06T02:18:15;10.43;;;5.03;;
4555;SDS011;2290;48.674;9.018;2023-04-06T02:20:43;7.80;;;4.80;;
4555;SDS011;2290;48.674;9.018;2023-04-06T02:23:09;7.90;;;5.20;;
4555;SDS011;2290;48.674;9.018;2023-04-06T02:25:35;9.50;;;4.80;;
4555;SDS011;2290;48.674;9.018;2023-04-06T02:28:00;6.87;;;4.83;;
4555;SDS011;2290;48.674;9.018;2023-04-06T02:30:26;9.10;;;5.10;;
4555;SDS011;2290;48.674;9.018;2023-04-06T02:32:52;9.77;;;5.07;;
4555;SDS011;2290;48.674;9.018;2023-04-06T02:35:17;11.93;;;4.97;;
4555;SDS011;2290;48.674;9.018;2023-04-06T02:37:43;8.10;;;4.60;;
4555;SDS011;2290;48.674;9.018;2023-04-06T02:40:08;7.60;;;4.80;;
4555;SDS011;2290;48.674;9.018;2023-04-06T02:42:35;8.77;;;5.33;;
4555;SDS011;2290;48.674;9.018;2023-04-06T02:45:00;12.27;;;5.00;;
4555;SDS011;2290;48.674;9.018;2023-04-06T02:47:26;7.60;;;4.33;;
4555;SDS011;2290;48.674;9.018;2023-04-06T02:49:51;7.60;;;5.33;;
4555;SDS011;2290;48.674;9.018;2023-04-06T02:52:17;7.33;;;4.73;;
4555;SDS011;2290;48.674;9.018;2023-04-06T02:54:43;7.70;;;4.50;;
4555;SDS011;2290;48.674;9.018;2023-04-06T02:57:08;9.17;;;5.27;;
4555;SDS011;2290;48.674;9.018;2023-04-06T02:59:34;8.23;;;5.23;;
4555;SDS011;2290;48.674;9.018;2023-04-06T03:02:01;8.20;;;5.60;;
4555;SDS011;2290;48.674;9.018;2023-04-06T03:04:27;13.10;;;5.57;;
4555;SDS011;2290;48.674;9.018;2023-04-06T03:06:53;18.00;;;5.13;;
4555;SDS011;2290;48.674;9.018;2023-04-06T03:09:20;11.60;;;5.47;;
4555;SDS011;2290;48.674;9.018;2023-04-06T03:11:46;10.30;;;5.27;;
4555;SDS011;2290;48.674;9.018;2023-04-06T03:14:11;9.30;;;4.93;;
4555;SDS011;2290;48.674;9.018;2023-04-06T03:16:37;8.23;;;4.87;;
4555;SDS011;2290;48.674;9.018;2023-04-06T03:19:02;8.87;;;4.80;;
4555;SDS011;2290;48.674;9.018;2023-04-06T03:21:28;8.10;;;5.50;;
4555;SDS011;2290;48.674;9.018;2023-04-06T03:23:53;10.07;;;5.27;;
4555;SDS011;2290;48.674;9.018;2023-04-06T03:26:19;10.47;;;6.17;;
4555;SDS011;2290;48.674;9.018;2023-04-06T03:28:47;11.90;;;4.70;;
4555;SDS011;2290;48.674;9.018;2023-04-06T03:31:12;7.70;;;4.53;;
4555;SDS011;2290;48.674;9.018;2023-04-06T03:33:38;9.57;;;5.30;;
4555;SDS011;2290;48.674;9.018;2023-04-06T03:36:04;9.13;;;5.13;;
4555;SDS011;2290;48.674;9.018;2023-04-06T03:38:30;8.67;;;4.30;;
4555;SDS011;2290;48.674;9.018;2023-04-06T03:40:55;7.13;;;4.43;;
4555;SDS011;2290;48.674;9.018;2023-04-06T03:43:21;8.73;;;4.80;;
4555;SDS011;2290;48.674;9.018;2023-04-06T03:45:46;6.93;;;4.50;;
4555;SDS011;2290;48.674;9.018;2023-04-06T03:48:12;9.83;;;4.87;;
4555;SDS011;2290;48.674;9.018;2023-04-06T03:50:37;12.90;;;5.37;;
4555;SDS011;2290;48.674;9.018;2023-04-06T03:53:03;8.73;;;4.80;;
4555;SDS011;2290;48.674;9.018;2023-04-06T03:55:30;15.13;;;5.47;;
4555;SDS011;2290;48.674;9.018;2023-04-06T03:57:57;8.97;;;5.00;;
4555;SDS011;2290;48.674;9.018;2023-04-06T04:00:22;12.70;;;5.67;;
4555;SDS011;2290;48.674;9.018;2023-04-06T04:02:48;10.30;;;5.13;;
4555;SDS011;2290;48.674;9.018;2023-04-06T04:05:14;7.73;;;4.37;;
4555;SDS011;2290;48.674;9.018;2023-04-06T04:07:40;7.80;;;4.20;;
4555;SDS011;2290;48.674;9.018;2023-04-06T04:10:06;11.50;;;4.70;;
4555;SDS011;2290;48.674;9.018;2023-04-06T04:12:34;11.63;;;5.30;;
4555;SDS011;2290;48.674;9.018;2023-04-06T04:15:00;8.80;;;5.17;;
4555;SDS011;2290;48.674;9.018;2023-04-06T04:17:25;8.40;;;4.63;;
4555;SDS011;2290;48.674;9.018;2023-04-06T04:19:51;9.80;;;4.20;;
4555;SDS011;2290;48.674;9.018;2023-04-06T04:22:17;10.23;;;4.97;;
4555;SDS011;2290;48.674;9.018;2023-04-06T04:24:42;7.60;;;4.57;;
4555;SDS011;2290;48.674;9.018;2023-04-06T04:27:08;7.90;;;4.57;;
4555;SDS011;2290;48.674;9.018;2023-04-06T04:29:34;9.00;;;4.90;;
4555;SDS011;2290;48.674;9.018;2023-04-06T04:31:59;10.10;;;5.03;;
4555;SDS011;2290;48.674;9.018;2023-04-06T04:34:25;8.10;;;4.93;;
4555;SDS011;2290;48.674;9.018;2023-04-06T04:36:51;9.20;;;4.60;;
4555;SDS011;2290;48.674;9.018;2023-04-06T04:39:17;9.60;;;5.00;;
4555;SDS011;2290;48.674;9.018;2023-04-06T04:41:42;9.00;;;5.03;;
4555;SDS011;2290;48.674;9.018;2023-04-06T04:44:08;7.20;;;4.63;;
4555;SDS011;2290;48.674;9.018;2023-04-06T04:46:34;8.30;;;4.30;;
4555;SDS011;2290;48.674;9.018;2023-04-06T04:48:59;9.13;;;4.90;;
4555;SDS011;2290;48.674;9.018;2023-04-06T04:51:25;10.00;;;5.33;;
4555;SDS011;2290;48.674;9.018;2023-04-06T04:53:50;6.90;;;4.40;;
4555;SDS011;2290;48.674;9.018;2023-04-06T04:56:16;7.73;;;4.37;;
4555;SDS011;2290;48.674;9.018;2023-04-06T04:58:42;10.30;;;4.80;;
4555;SDS011;2290;48.674;9.018;2023-04-06T05:01:07;8.10;;;4.90;;
4555;SDS011;2290;48.674;9.018;2023-04-06T05:03:33;8.53;;;4.90;;
4555;SDS011;2290;48.674;9.018;2023-04-06T05:05:59;8.57;;;4.43;;
4555;SDS011;2290;48.674;9.018;2023-04-06T05:08:24;9.80;;;5.10;;
4555;SDS011;2290;48.674;9.018;2023-04-06T05:10:50;8.13;;;5.20;;
4555;SDS011;2290;48.674;9.018;2023-04-06T05:13:16;7.60;;;5.10;;
4555;SDS011;2290;48.674;9.018;2023-04-06T05:15:41;8.27;;;5.73;;
4555;SDS011;2290;48.674;9.018;2023-04-06T05:18:07;7.67;;;4.80;;
4555;SDS011;2290;48.674;9.018;2023-04-06T05:20:34;7.97;;;5.03;;
4555;SDS011;2290;48.674;9.018;2023-04-06T05:23:00;9.90;;;5.33;;
4555;SDS011;2290;48.674;9.018;2023-04-06T05:25:26;10.03;;;5.00;;
4555;SDS011;2290;48.674;9.018;2023-04-06T05:27:53;7.77;;;4.83;;
4555;SDS011;2290;48.674;9.018;2023-04-06T05:30:18;10.57;;;5.60;;
4555;SDS011;2290;48.674;9.018;2023-04-06T05:32:45;9.10;;;5.60;;
4555;SDS011;2290;48.674;9.018;2023-04-06T05:35:12;8.20;;;4.40;;
4555;SDS011;2290;48.674;9.018;2023-04-06T05:37:38;10.70;;;5.63;;
4555;SDS011;2290;48.674;9.018;2023-04-06T05:40:04;15.63;;;5.00;;
4555;SDS011;2290;48.674;9.018;2023-04-06T05:42:37;6.83;;;5.20;;
4555;SDS011;2290;48.674;9.018;2023-04-06T05:45:03;13.20;;;5.27;;
4555;SDS011;2290;48.674;9.018;2023-04-06T05:47:30;9.10;;;5.50;;
4555;SDS011;2290;48.674;9.018;2023-04-06T05:49:55;19.20;;;5.53;;
4555;SDS011;2290;48.674;9.018;2023-04-06T05:52:21;9.67;;;5.80;;
4555;SDS011;2290;48.674;9.018;2023-04-06T05:54:46;9.80;;;4.70;;
4555;SDS011;2290;48.674;9.018;2023-04-06T05:57:12;8.90;;;5.00;;
4555;SDS011;2290;48.674;9.018;2023-04-06T05:59:38;8.07;;;5.40;;
4555;SDS011;2290;48.674;9.018;2023-04-06T06:02:03;10.47;;;5.37;;
4555;SDS011;2290;48.674;9.018;2023-04-06T06:04:30;11.73;;;6.00;;
4555;SDS011;2290;48.674;9.018;2023-04-06T06:06:56;8.50;;;5.00;;
4555;SDS011;2290;48.674;9.018;2023-04-06T06:09:21;8.40;;;5.40;;
4555;SDS011;2290;48.674;9.018;2023-04-06T06:11:48;7.50;;;4.93;;
4555;SDS011;2290;48.674;9.018;2023-04-06T06:14:13;9.27;;;5.33;;
4555;SDS011;2290;48.674;9.018;2023-04-06T06:16:40;10.37;;;6.23;;
4555;SDS011;2290;48.674;9.018;2023-04-06T06:19:05;8.80;;;5.23;;
4555;SDS011;2290;48.674;9.018;2023-04-06T06:21:32;8.77;;;5.30;;
4555;SDS011;2290;48.674;9.018;2023-04-06T06:23:58;8.13;;;4.80;;
4555;SDS011;2290;48.674;9.018;2023-04-06T06:26:23;10.93;;;5.90;;
4555;SDS011;2290;48.674;9.018;2023-04-06T06:28:49;6.47;;;4.90;;
4555;SDS011;2290;48.674;9.018;2023-04-06T06:31:15;11.30;;;5.70;;
4555;SDS011;2290;48.674;9.018;2023-04-06T06:33:42;9.50;;;5.03;;
4555;SDS011;2290;48.674;9.018;2023-04-06T06:36:08;8.60;;;5.37;;
4555;SDS011;2290;48.674;9.018;2023-04-06T06:38:33;16.37;;;6.10;;
4555;SDS011;2290;48.674;9.018;2023-04-06T06:40:59;10.00;;;5.90;;
4555;SDS011;2290;48.674;9.018;2023-04-06T06:43:25;10.20;;;5.30;;
4555;SDS011;2290;48.674;9.018;2023-04-06T06:45:50;7.57;;;5.40;;
4555;SDS011;2290;48.674;9.018;2023-04-06T06:48:16;10.20;;;5.63;;
4555;SDS011;2290;48.674;9.018;2023-04-06T06:50:41;8.70;;;5.60;;
4555;SDS011;2290;48.674;9.018;2023-04-06T06:53:07;11.70;;;6.23;;
4555;SDS011;2290;48.674;9.018;2023-04-06T06:55:33;9.13;;;5.30;;
4555;SDS011;2290;48.674;9.018;2023-04-06T06:57:58;11.20;;;6.13;;
4555;SDS011;2290;48.674;9.018;2023-04-06T07:00:25;9.10;;;5.83;;
4555;SDS011;2290;48.674;9.018;2023-04-06T07:02:51;11.70;;;5.80;;
4555;SDS011;2290;48.674;9.018;2023-04-06T07:05:17;9.03;;;5.50;;
4555;SDS011;2290;48.674;9.018;2023-04-06T07:07:43;10.03;;;5.40;;
4555;SDS011;2290;48.674;9.018;2023-04-06T07:10:11;12.27;;;5.57;;
4555;SDS011;2290;48.674;9.018;2023-04-06T07:12:38;10.50;;;5.43;;
4555;SDS011;2290;48.674;9.018;2023-04-06T07:15:04;10.70;;;5.60;;
4555;SDS011;2290;48.674;9.018;2023-04-06T07:17:30;9.87;;;5.53;;
4555;SDS011;2290;48.674;9.018;2023-04-06T07:19:56;8.90;;;5.90;;
4555;SDS011;2290;48.674;9.018;2023-04-06T07:22:21;8.73;;;5.43;;
4555;SDS011;2290;48.674;9.018;2023-04-06T07:24:47;11.33;;;5.97;;
4555;SDS011;2290;48.674;9.018;2023-04-06T07:27:13;9.10;;;5.70;;
4555;SDS011;2290;48.674;9.018;2023-04-06T07:29:41;7.60;;;5.27;;
4555;SDS011;2290;48.674;9.018;2023-04-06T07:32:08;8.90;;;5.67;;
4555;SDS011;2290;48.674;9.018;2023-04-06T07:34:33;8.47;;;4.80;;
4555;SDS011;2290;48.674;9.018;2023-04-06T07:36:59;9.60;;;5.67;;
4555;SDS011;2290;48.674;9.018;2023-04-06T07:39:25;9.33;;;5.80;;
4555;SDS011;2290;48.674;9.018;2023-04-06T07:41:51;12.13;;;5.80;;
4555;SDS011;2290;48.674;9.018;2023-04-06T07:44:17;9.30;;;5.43;;
4555;SDS011;2290;48.674;9.018;2023-04-06T07:46:43;8.57;;;5.50;;
4555;SDS011;2290;48.674;9.018;2023-04-06T07:49:09;9.90;;;5.87;;
4555;SDS011;2290;48.674;9.018;2023-04-06T07:51:36;13.30;;;5.20;;
4555;SDS011;2290;48.674;9.018;2023-04-06T07:54:03;9.67;;;5.37;;
4555;SDS011;2290;48.674;9.018;2023-04-06T07:56:28;8.60;;;5.37;;
4555;SDS011;2290;48.674;9.018;2023-04-06T07:58:54;7.73;;;5.27;;
4555;SDS011;2290;48.674;9.018;2023-04-06T08:01:22;8.73;;;5.10;;
4555;SDS011;2290;48.674;9.018;2023-04-06T08:03:47;10.77;;;5.87;;
4555;SDS011;2290;48.674;9.018;2023-04-06T08:06:13;11.10;;;6.27;;
4555;SDS011;2290;48.674;9.018;2023-04-06T08:08:39;12.07;;;6.23;;
4555;SDS011;2290;48.674;9.018;2023-04-06T08:11:14;11.77;;;6.00;;
4555;SDS011;2290;48.674;9.018;2023-04-06T08:13:41;8.17;;;5.60;;
4555;SDS011;2290;48.674;9.018;2023-04-06T08:16:06;8.60;;;5.20;;
4555;SDS011;2290;48.674;9.018;2023-04-06T08:18:32;10.83;;;5.73;;
4555;SDS011;2290;48.674;9.018;2023-04-06T08:20:57;10.77;;;5.93;;
4555;SDS011;2290;48.674;9.018;2023-04-06T08:23:24;9.80;;;5.83;;
4555;SDS011;2290;48.674;9.018;2023-04-06T08:25:50;12.10;;;5.63;;
4555;SDS011;2290;48.674;9.018;2023-04-06T08:28:18;10.43;;;6.20;;
4555;SDS011;2290;48.674;9.018;2023-04-06T08:30:44;8.57;;;5.63;;
4555;SDS011;2290;48.674;9.018;2023-04-06T08:33:09;12.43;;;6.13;;
4555;SDS011;2290;48.674;9.018;2023-04-06T08:35:36;8.20;;;5.50;;
4555;SDS011;2290;48.674;9.018;2023-04-06T08:38:03;8.97;;;5.50;;
4555;SDS011;2290;48.674;9.018;2023-04-06T08:40:35;13.20;;;5.10;;
4555;SDS011;2290;48.674;9.018;2023-04-06T08:43:02;8.30;;;4.87;;
4555;SDS011;2290;48.674;9.018;2023-04-06T08:45:33;10.20;;;6.00;;
4555;SDS011;2290;48.674;9.018;2023-04-06T08:48:00;8.37;;;5.57;;
4555;SDS011;2290;48.674;9.018;2023-04-06T08:50:29;9.60;;;5.47;;
4555;SDS011;2290;48.674;9.018;2023-04-06T08:52:55;8.30;;;5.93;;
4555;SDS011;2290;48.674;9.018;2023-04-06T08:55:23;8.30;;;4.83;;
4555;SDS011;2290;48.674;9.018;2023-04-06T08:57:49;8.07;;;5.27;;
4555;SDS011;2290;48.674;9.018;2023-04-06T09:00:18;8.90;;;4.80;;
4555;SDS011;2290;48.674;9.018;2023-04-06T09:02:44;12.67;;;5.10;;
4555;SDS011;2290;48.674;9.018;2023-04-06T09:05:12;8.10;;;4.40;;
4555;SDS011;2290;48.674;9.018;2023-04-06T09:07:37;8.83;;;4.67;;
4555;SDS011;2290;48.674;9.018;2023-04-06T09:10:06;7.40;;;4.77;;
4555;SDS011;2290;48.674;9.018;2023-04-06T09:12:32;8.10;;;4.37;;
4555;SDS011;2290;48.674;9.018;2023-04-06T09:15:00;9.23;;;4.97;;
4555;SDS011;2290;48.674;9.018;2023-04-06T09:17:31;6.40;;;4.40;;
4555;SDS011;2290;48.674;9.018;2023-04-06T09:20:03;6.03;;;4.20;;
4555;SDS011;2290;48.674;9.018;2023-04-06T09:22:36;7.13;;;4.73;;
4555;SDS011;2290;48.674;9.018;2023-04-06T09:25:02;8.50;;;4.80;;
4555;SDS011;2290;48.674;9.018;2023-04-06T09:30:04;7.03;;;4.20;;
4555;SDS011;2290;48.674;9.018;2023-04-06T09:32:31;7.53;;;4.50;;
4555;SDS011;2290;48.674;9.018;2023-04-06T09:35:07;8.97;;;4.93;;
4555;SDS011;2290;48.674;9.018;2023-04-06T09:37:33;8.13;;;4.53;;
4555;SDS011;2290;48.674;9.018;2023-04-06T09:40:03;7.60;;;4.47;;
4555;SDS011;2290;48.674;9.018;2023-04-06T09:42:30;8.70;;;4.67;;
4555;SDS011;2290;48.674;9.018;2023-04-06T09:44:56;8.73;;;4.30;;
4555;SDS011;2290;48.674;9.018;2023-04-06T09:47:24;7.70;;;4.50;;
4555;SDS011;2290;48.674;9.018;2023-04-06T09:49:52;6.70;;;4.70;;
4555;SDS011;2290;48.674;9.018;2023-04-06T09:52:22;6.63;;;4.70;;
4555;SDS011;2290;48.674;9.018;2023-04-06T09:54:51;6.30;;;4.30;;
4555;SDS011;2290;48.674;9.018;2023-04-06T09:57:29;8.80;;;4.90;;
4555;SDS011;2290;48.674;9.018;2023-04-06T10:00:03;9.00;;;3.90;;
4555;SDS011;2290;48.674;9.018;2023-04-06T10:05:52;5.90;;;4.20;;
4555;SDS011;2290;48.674;9.018;2023-04-06T10:08:27;7.20;;;4.07;;
4555;SDS011;2290;48.674;9.018;2023-04-06T10:10:54;7.10;;;4.87;;
4555;SDS011;2290;48.674;9.018;2023-04-06T10:13:20;8.13;;;4.70;;
4555;SDS011;2290;48.674;9.018;2023-04-06T10:15:48;6.83;;;4.37;;
4555;SDS011;2290;48.674;9.018;2023-04-06T10:18:16;6.20;;;4.27;;
4555;SDS011;2290;48.674;9.018;2023-04-06T10:20:52;6.60;;;4.27;;
4555;SDS011;2290;48.674;9.018;2023-04-06T10:23:41;7.00;;;4.40;;
4555;SDS011;2290;48.674;9.018;2023-04-06T10:26:13;7.63;;;4.20;;
4555;SDS011;2290;48.674;9.018;2023-04-06T10:28:43;6.87;;;4.30;;
4555;SDS011;2290;48.674;9.018;2023-04-06T10:31:10;7.97;;;4.10;;
4555;SDS011;2290;48.674;9.018;2023-04-06T10:33:36;10.73;;;4.97;;
4555;SDS011;2290;48.674;9.018;2023-04-06T10:36:11;8.67;;;5.20;;
4555;SDS011;2290;48.674;9.018;2023-04-06T10:38:47;7.70;;;4.50;;
4555;SDS011;2290;48.674;9.018;2023-04-06T10:41:18;8.57;;;4.43;;
4555;SDS011;2290;48.674;9.018;2023-04-06T10:43:44;10.40;;;4.70;;
4555;SDS011;2290;48.674;9.018;2023-04-06T10:46:09;5.97;;;4.07;;
4555;SDS011;2290;48.674;9.018;2023-04-06T10:48:40;7.33;;;4.70;;
4555;SDS011;2290;48.674;9.018;2023-04-06T10:51:11;8.60;;;4.20;;
4555;SDS011;2290;48.674;9.018;2023-04-06T10:53:41;8.63;;;4.80;;
4555;SDS011;2290;48.674;9.018;2023-04-06T10:56:18;8.30;;;3.93;;
4555;SDS011;2290;48.674;9.018;2023-04-06T10:59:07;5.67;;;4.07;;
4555;SDS011;2290;48.674;9.018;2023-04-06T11:01:33;8.17;;;4.30;;
4555;SDS011;2290;48.674;9.018;2023-04-06T11:03:59;6.67;;;4.60;;
4555;SDS011;2290;48.674;9.018;2023-04-06T11:06:25;6.70;;;4.17;;
4555;SDS011;2290;48.674;9.018;2023-04-06T11:08:54;6.53;;;4.27;;
4555;SDS011;2290;48.674;9.018;2023-04-06T11:11:21;7.30;;;4.70;;
4555;SDS011;2290;48.674;9.018;2023-04-06T11:13:49;7.80;;;4.63;;
4555;SDS011;2290;48.674;9.018;2023-04-06T11:16:20;8.37;;;4.73;;
4555;SDS011;2290;48.674;9.018;2023-04-06T11:21:37;6.00;;;4.03;;
4555;SDS011;2290;48.674;9.018;2023-04-06T11:29:21;6.70;;;4.07;;
4555;SDS011;2290;48.674;9.018;2023-04-06T11:31:51;7.70;;;4.20;;
4555;SDS011;2290;48.674;9.018;2023-04-06T11:34:19;6.40;;;3.70;;
4555;SDS011;2290;48.674;9.018;2023-04-06T11:36:46;7.93;;;4.63;;
4555;SDS011;2290;48.674;9.018;2023-04-06T11:39:17;10.10;;;4.63;;
4555;SDS011;2290;48.674;9.018;2023-04-06T11:41:51;10.80;;;3.97;;
4555;SDS011;2290;48.674;9.018;2023-04-06T11:47:15;6.10;;;4.23;;
4555;SDS011;2290;48.674;9.018;2023-04-06T11:49:43;8.07;;;4.10;;
4555;SDS011;2290;48.674;9.018;2023-04-06T11:52:19;9.57;;;4.90;;
4555;SDS011;2290;48.674;9.018;2023-04-06T11:54:49;6.30;;;4.87;;
4555;SDS011;2290;48.674;9.018;2023-04-06T11:57:19;7.50;;;5.03;;
4555;SDS011;2290;48.674;9.018;2023-04-06T11:59:45;7.87;;;4.60;;
4555;SDS011;2290;48.674;9.018;2023-04-06T12:02:11;4.73;;;4.23;;
4555;SDS011;2290;48.674;9.018;2023-04-06T12:04:37;10.57;;;5.27;;
4555;SDS011;2290;48.674;9.018;2023-04-06T12:07:03;7.30;;;5.10;;
4555;SDS011;2290;48.674;9.018;2023-04-06T12:09:29;7.77;;;5.30;;
4555;SDS011;2290;48.674;9.018;2023-04-06T12:11:57;7.50;;;4.83;;
4555;SDS011;2290;48.674;9.018;2023-04-06T12:14:22;8.77;;;5.10;;
4555;SDS011;2290;48.674;9.018;2023-04-06T12:16:48;7.60;;;4.40;;
4555;SDS011;2290;48.674;9.018;2023-04-06T12:19:14;9.20;;;4.63;;
4555;SDS011;2290;48.674;9.018;2023-04-06T12:21:41;7.83;;;5.20;;
4555;SDS011;2290;48.674;9.018;2023-04-06T12:24:07;7.30;;;4.73;;
4555;SDS011;2290;48.674;9.018;2023-04-06T12:26:33;11.50;;;5.10;;
4555;SDS011;2290;48.674;9.018;2023-04-06T12:29:01;9.40;;;5.03;;
4555;SDS011;2290;48.674;9.018;2023-04-06T12:31:32;6.93;;;4.70;;
4555;SDS011;2290;48.674;9.018;2023-04-06T12:33:59;6.43;;;4.47;;
4555;SDS011;2290;48.674;9.018;2023-04-06T12:36:27;7.00;;;4.40;;
4555;SDS011;2290;48.674;9.018;2023-04-06T12:38:52;8.93;;;4.13;;
4555;SDS011;2290;48.674;9.018;2023-04-06T12:41:18;7.83;;;4.93;;
4555;SDS011;2290;48.674;9.018;2023-04-06T12:43:44;7.70;;;4.60;;
4555;SDS011;2290;48.674;9.018;2023-04-06T12:46:11;7.50;;;4.50;;
4555;SDS011;2290;48.674;9.018;2023-04-06T12:48:37;5.33;;;3.60;;
4555;SDS011;2290;48.674;9.018;2023-04-06T12:51:04;5.33;;;3.97;;
4555;SDS011;2290;48.674;9.018;2023-04-06T12:53:30;5.83;;;4.07;;
4555;SDS011;2290;48.674;9.018;2023-04-06T12:55:58;5.50;;;3.60;;
4555;SDS011;2290;48.674;9.018;2023-04-06T12:58:24;7.07;;;4.30;;
4555;SDS011;2290;48.674;9.018;2023-04-06T13:00:53;11.43;;;5.00;;
4555;SDS011;2290;48.674;9.018;2023-04-06T13:03:21;7.33;;;4.27;;
4555;SDS011;2290;48.674;9.018;2023-04-06T13:05:47;6.50;;;4.10;;
4555;SDS011;2290;48.674;9.018;2023-04-06T13:08:14;5.23;;;4.40;;
4555;SDS011;2290;48.674;9.018;2023-04-06T13:10:58;7.03;;;4.13;;
4555;SDS011;2290;48.674;9.018;2023-04-06T13:13:24;5.53;;;3.70;;
4555;SDS011;2290;48.674;9.018;2023-04-06T13:15:53;7.23;;;4.10;;
4555;SDS011;2290;48.674;9.018;2023-04-06T13:18:21;5.73;;;3.83;;
4555;SDS011;2290;48.674;9.018;2023-04-06T13:20:47;10.27;;;4.40;;
4555;SDS011;2290;48.674;9.018;2023-04-06T13:23:14;6.63;;;4.60;;
4555;SDS011;2290;48.674;9.018;2023-04-06T13:25:40;6.00;;;4.50;;
4555;SDS011;2290;48.674;9.018;2023-04-06T13:28:06;7.07;;;4.17;;
4555;SDS011;2290;48.674;9.018;2023-04-06T13:30:33;6.03;;;4.30;;
4555;SDS011;2290;48.674;9.018;2023-04-06T13:32:58;6.73;;;4.13;;
4555;SDS011;2290;48.674;9.018;2023-04-06T13:35:24;6.60;;;4.53;;
4555;SDS011;2290;48.674;9.018;2023-04-06T13:37:49;7.07;;;4.87;;
4555;SDS011;2290;48.674;9.018;2023-04-06T13:40:17;5.63;;;4.13;;
4555;SDS011;2290;48.674;9.018;2023-04-06T13:42:43;5.80;;;3.97;;
4555;SDS011;2290;48.674;9.018;2023-04-06T13:45:11;6.33;;;3.57;;
4555;SDS011;2290;48.674;9.018;2023-04-06T13:47:37;8.73;;;4.73;;
4555;SDS011;2290;48.674;9.018;2023-04-06T13:50:03;6.70;;;4.33;;
4555;SDS011;2290;48.674;9.018;2023-04-06T13:52:30;7.50;;;4.40;;
4555;SDS011;2290;48.674;9.018;2023-04-06T13:54:57;11.20;;;4.30;;
4555;SDS011;2290;48.674;9.018;2023-04-06T13:57:22;6.70;;;4.40;;
4555;SDS011;2290;48.674;9.018;2023-04-06T13:59:48;6.50;;;4.17;;
4555;SDS011;2290;48.674;9.018;2023-04-06T14:02:15;5.13;;;3.83;;
4555;SDS011;2290;48.674;9.018;2023-04-06T14:04:41;6.60;;;4.57;;
4555;SDS011;2290;48.674;9.018;2023-04-06T14:07:07;5.67;;;4.27;;
4555;SDS011;2290;48.674;9.018;2023-04-06T14:09:34;10.50;;;4.93;;
4555;SDS011;2290;48.674;9.018;2023-04-06T14:11:59;6.57;;;4.60;;
4555;SDS011;2290;48.674;9.018;2023-04-06T14:14:27;7.67;;;4.10;;
4555;SDS011;2290;48.674;9.018;2023-04-06T14:16:52;4.83;;;4.10;;
4555;SDS011;2290;48.674;9.018;2023-04-06T14:19:20;9.07;;;3.83;;
4555;SDS011;2290;48.674;9.018;2023-04-06T14:21:46;9.30;;;4.70;;
4555;SDS011;2290;48.674;9.018;2023-04-06T14:24:13;6.23;;;4.10;;
4555;SDS011;2290;48.674;9.018;2023-04-06T14:26:39;8.67;;;4.70;;
4555;SDS011;2290;48.674;9.018;2023-04-06T14:29:09;5.90;;;4.07;;
4555;SDS011;2290;48.674;9.018;2023-04-06T14:31:35;5.27;;;4.47;;
4555;SDS011;2290;48.674;9.018;2023-04-06T14:34:02;7.80;;;4.07;;
4555;SDS011;2290;48.674;9.018;2023-04-06T14:36:28;7.23;;;4.10;;
4555;SDS011;2290;48.674;9.018;2023-04-06T14:39:03;8.80;;;4.40;;
4555;SDS011;2290;48.674;9.018;2023-04-06T14:41:33;6.43;;;4.67;;
4555;SDS011;2290;48.674;9.018;2023-04-06T14:43:59;6.60;;;4.10;;
4555;SDS011;2290;48.674;9.018;2023-04-06T14:46:25;7.03;;;4.57;;
4555;SDS011;2290;48.674;9.018;2023-04-06T14:48:56;7.33;;;4.43;;
4555;SDS011;2290;48.674;9.018;2023-04-06T14:51:25;5.10;;;3.73;;
4555;SDS011;2290;48.674;9.018;2023-04-06T14:53:55;8.40;;;4.20;;
4555;SDS011;2290;48.674;9.018;2023-04-06T14:56:21;8.93;;;4.33;;
4555;SDS011;2290;48.674;9.018;2023-04-06T14:58:48;7.17;;;4.83;;
4555;SDS011;2290;48.674;9.018;2023-04-06T15:01:17;6.10;;;4.43;;
4555;SDS011;2290;48.674;9.018;2023-04-06T15:03:43;7.63;;;4.50;;
4555;SDS011;2290;48.674;9.018;2023-04-06T15:06:12;7.50;;;5.20;;
4555;SDS011;2290;48.674;9.018;2023-04-06T15:08:40;6.23;;;4.70;;
4555;SDS011;2290;48.674;9.018;2023-04-06T15:11:09;7.10;;;4.47;;
4555;SDS011;2290;48.674;9.018;2023-04-06T15:13:35;7.23;;;4.47;;
4555;SDS011;2290;48.674;9.018;2023-04-06T15:16:01;7.63;;;4.43;;
4555;SDS011;2290;48.674;9.018;2023-04-06T15:18:30;5.90;;;4.17;;
4555;SDS011;2290;48.674;9.018;2023-04-06T15:20:55;5.33;;;4.20;;
4555;SDS011;2290;48.674;9.018;2023-04-06T15:23:21;5.63;;;4.10;;
4555;SDS011;2290;48.674;9.018;2023-04-06T15:25:47;10.97;;;4.87;;
4555;SDS011;2290;48.674;9.018;2023-04-06T15:28:14;9.50;;;4.63;;